Time;durP1;ratioP1;P1;durP2;ratioP2;P2;SDS_P1;SDS_P2;PMS_P1;PMS_P2;Temp;Humidity;BMP_temperature;BMP_pressure;BME280_temperature;BME280_humidity;BME280_pressure;Samples;Min_cycle;Max_cycle;Signal;HPM_P1;HPM_P2
2021/06/17 00:01:43;;;;;;;3.42;1.90;;;25.20;75.10;;;;;;5052444;28;20041;-63
2021/06/17 00:04:09;;;;;;;3.20;2.05;;;25.20;75.30;;;;;;5052841;28;20037;-64
2021/06/17 00:06:34;;;;;;;4.60;2.00;;;25.20;76.50;;;;;;5054415;28;20059;-65
2021/06/17 00:09:00;;;;;;;6.53;2.30;;;25.10;76.50;;;;;;5073723;28;20029;-64
2021/06/17 00:11:27;;;;;;;3.38;2.03;;;25.20;76.90;;;;;;5073359;28;20040;-63
2021/06/17 00:13:53;;;;;;;4.55;1.98;;;25.20;75.40;;;;;;5073741;28;20037;-64
2021/06/17 00:16:19;;;;;;;6.43;2.70;;;25.20;76.10;;;;;;5064029;28;20040;-63
2021/06/17 00:18:46;;;;;;;3.25;2.10;;;25.30;74.40;;;;;;5053357;28;20025;-63
2021/06/17 00:21:11;;;;;;;4.97;1.98;;;25.50;73.20;;;;;;5053684;28;20029;-63
2021/06/17 00:23:37;;;;;;;5.25;2.25;;;25.40;73.10;;;;;;5053515;28;20498;-63
2021/06/17 00:26:04;;;;;;;4.43;1.77;;;25.40;73.20;;;;;;5053578;28;20036;-63
2021/06/17 00:28:31;;;;;;;3.95;2.08;;;25.40;73.30;;;;;;5052041;28;20033;-63
2021/06/17 00:30:57;;;;;;;4.93;2.17;;;25.40;73.10;;;;;;5052614;28;20052;-63
2021/06/17 00:33:24;;;;;;;3.28;2.00;;;25.30;73.30;;;;;;5052192;28;20048;-63
2021/06/17 00:35:50;;;;;;;3.70;2.08;;;25.30;73.20;;;;;;5052054;28;20029;-63
2021/06/17 00:38:16;;;;;;;4.85;2.25;;;25.40;73.30;;;;;;5052515;28;20039;-63
2021/06/17 00:40:44;;;;;;;4.88;1.90;;;25.40;73.40;;;;;;5051802;28;20028;-64
2021/06/17 00:43:10;;;;;;;3.35;2.30;;;25.40;73.50;;;;;;5053155;28;20075;-63
2021/06/17 00:45:44;;;;;;;4.07;2.10;;;25.30;73.80;;;;;;5055582;28;20032;-63
2021/06/17 00:48:12;;;;;;;11.23;5.60;;;25.30;76.10;;;;;;5072868;28;20413;-63
2021/06/17 00:51:00;;;;;;;7.90;5.13;;;25.10;77.90;;;;;;5072973;28;20036;-63
2021/06/17 00:53:33;;;;;;;3.95;2.30;;;24.90;78.20;;;;;;5071820;28;20028;-63
2021/06/17 00:56:00;;;;;;;2.88;2.05;;;24.80;78.80;;;;;;5088420;28;20078;-63
2021/06/17 00:58:26;;;;;;;4.93;2.20;;;24.70;79.60;;;;;;5072485;28;20028;-63
2021/06/17 01:00:53;;;;;;;7.60;2.70;;;24.70;79.70;;;;;;5071677;28;20409;-63
2021/06/17 01:03:20;;;;;;;6.00;2.35;;;24.70;79.60;;;;;;5072612;28;20481;-63
2021/06/17 01:05:46;;;;;;;4.82;2.38;;;24.70;79.70;;;;;;5072413;28;20037;-63
2021/06/17 01:08:37;;;;;;;6.43;2.42;;;24.60;78.00;;;;;;5071591;28;20028;-63
2021/06/17 01:11:30;;;;;;;5.35;2.50;;;24.60;77.60;;;;;;5072690;28;20033;-63
2021/06/17 01:14:10;;;;;;;7.10;2.65;;;24.70;79.50;;;;;;5071130;28;20131;-63
2021/06/17 01:17:03;;;;;;;6.00;2.20;;;24.70;79.70;;;;;;5071241;28;20554;-63
2021/06/17 01:19:31;;;;;;;6.25;2.70;;;24.80;80.10;;;;;;5071049;28;20042;-63
2021/06/17 01:22:18;;;;;;;5.70;2.28;;;24.80;80.40;;;;;;5071006;28;20076;-63
2021/06/17 01:24:56;;;;;;;4.22;1.98;;;24.60;80.00;;;;;;5072365;28;20083;-63
2021/06/17 01:27:50;;;;;;;4.82;2.25;;;24.40;81.30;;;;;;5072211;28;20032;-62
2021/06/17 01:30:18;;;;;;;5.30;2.25;;;24.10;82.80;;;;;;5072026;28;20135;-63
2021/06/17 01:32:50;;;;;;;5.93;2.80;;;24.00;84.00;;;;;;5072048;28;20028;-62
2021/06/17 01:35:20;;;;;;;4.00;2.70;;;24.00;82.90;;;;;;5072320;28;20071;-62
2021/06/17 01:37:49;;;;;;;;;;;24.00;82.80;;;;;;5071428;28;20033;-62
2021/06/17 01:40:16;;;;;;;3.58;2.20;;;24.00;81.40;;;;;;5071130;28;19916;-62
2021/06/17 01:42:44;;;;;;;3.83;2.08;;;24.00;80.70;;;;;;5071980;28;20151;-62
2021/06/17 01:45:11;;;;;;;4.70;2.72;;;24.00;80.20;;;;;;5072380;28;20107;-62
2021/06/17 01:47:38;;;;;;;5.03;2.85;;;24.00;83.20;;;;;;5072025;28;20024;-63
2021/06/17 01:50:06;;;;;;;6.53;2.75;;;23.80;84.30;;;;;;5071056;28;20546;-62
2021/06/17 01:52:33;;;;;;;9.98;2.80;;;23.80;83.10;;;;;;5072133;28;20032;-63
2021/06/17 01:55:00;;;;;;;4.88;2.53;;;23.80;84.20;;;;;;5070707;28;20035;-62
2021/06/17 01:57:28;;;;;;;5.20;2.65;;;24.00;84.20;;;;;;5071891;28;20025;-63
2021/06/17 01:59:55;;;;;;;6.50;2.85;;;23.90;86.40;;;;;;5070719;28;20546;-63
2021/06/17 02:02:22;;;;;;;6.55;2.88;;;23.90;85.60;;;;;;5054252;28;20473;-62
2021/06/17 02:04:51;;;;;;;5.35;3.05;;;24.10;83.20;;;;;;5070461;28;20036;-62
2021/06/17 02:07:20;;;;;;;6.18;2.70;;;24.30;82.70;;;;;;5070711;28;20106;-62
2021/06/17 02:09:49;;;;;;;5.50;3.00;;;24.30;82.50;;;;;;5070308;28;20473;-63
2021/06/17 02:12:15;;;;;;;3.55;2.45;;;24.20;82.30;;;;;;5070468;28;20040;-62
2021/06/17 02:14:42;;;;;;;3.85;2.50;;;24.20;80.80;;;;;;5071742;28;20082;-62
2021/06/17 02:17:10;;;;;;;5.32;2.55;;;24.20;81.80;;;;;;5070245;28;20072;-63
2021/06/17 02:19:37;;;;;;;4.65;2.60;;;24.20;81.20;;;;;;5070512;28;20073;-62
2021/06/17 02:22:05;;;;;;;7.40;3.15;;;24.30;81.60;;;;;;5070700;28;20033;-62
2021/06/17 02:24:36;;;;;;;7.07;2.60;;;24.20;81.00;;;;;;5070829;28;20033;-62
2021/06/17 02:27:15;;;;;;;6.88;2.40;;;24.30;80.80;;;;;;5070346;28;20488;-62
2021/06/17 02:29:49;;;;;;;8.45;2.97;;;24.30;81.10;;;;;;5054796;28;20115;-63
2021/06/17 02:32:20;;;;;;;5.28;3.03;;;24.40;81.00;;;;;;5074263;28;20036;-62
2021/06/17 02:34:49;;;;;;;5.60;2.90;;;24.40;81.60;;;;;;5074313;28;20043;-62
2021/06/17 02:37:17;;;;;;;5.50;2.88;;;24.40;83.10;;;;;;5057780;28;20041;-63
2021/06/17 02:39:47;;;;;;;7.97;3.30;;;24.10;86.70;;;;;;5074256;28;20024;-63
2021/06/17 02:42:17;;;;;;;6.80;3.00;;;24.10;85.00;;;;;;5074114;28;20032;-62
2021/06/17 02:44:44;;;;;;;4.47;2.67;;;24.10;84.10;;;;;;5074210;28;20032;-62
2021/06/17 02:47:12;;;;;;;4.95;3.00;;;24.20;84.10;;;;;;5075383;28;20427;-62
2021/06/17 02:49:40;;;;;;;6.55;3.10;;;23.70;87.90;;;;;;5075461;28;20062;-62
2021/06/17 02:52:07;;;;;;;5.45;3.10;;;23.60;89.10;;;;;;5075082;28;20029;-63
2021/06/17 02:54:33;;;;;;;5.95;3.00;;;23.60;90.70;;;;;;5075103;28;20025;-62
2021/06/17 02:57:07;;;;;;;6.20;3.45;;;23.20;91.90;;;;;;5090535;28;20489;-62
2021/06/17 02:59:56;;;;;;;6.05;3.30;;;22.70;94.20;;;;;;5090623;28;20473;-62
2021/06/17 03:02:47;;;;;;;7.32;3.88;;;22.90;94.40;;;;;;5073855;28;20032;-62
2021/06/17 03:05:18;;;;;;;6.70;3.60;;;22.60;95.40;;;;;;5074847;28;20107;-62
2021/06/17 03:07:56;;;;;;;;;;;22.60;96.30;;;;;;5075224;28;20508;-62
2021/06/17 03:10:23;;;;;;;5.90;3.65;;;22.60;96.90;;;;;;5058119;28;19919;-62
2021/06/17 03:12:51;;;;;;;8.30;4.20;;;22.60;98.00;;;;;;5074615;28;20028;-62
2021/06/17 03:15:17;;;;;;;6.15;4.35;;;22.40;99.00;;;;;;5074609;28;20028;-62
2021/06/17 03:17:49;;;;;;;7.22;4.30;;;22.30;99.90;;;;;;5074996;28;20082;-62
2021/06/17 03:20:19;;;;;;;11.68;4.53;;;22.20;99.90;;;;;;5073539;28;20039;-62
2021/06/17 03:22:53;;;;;;;8.40;3.35;;;22.30;99.90;;;;;;5073218;28;20032;-62
2021/06/17 03:25:24;;;;;;;6.60;3.97;;;22.50;99.90;;;;;;5073605;28;20492;-62
2021/06/17 03:27:52;;;;;;;6.63;4.32;;;22.70;99.90;;;;;;5073350;28;20500;-62
2021/06/17 03:30:22;;;;;;;7.25;4.15;;;22.80;99.90;;;;;;5073162;28;20040;-62
2021/06/17 03:32:50;;;;;;;9.63;4.20;;;22.90;99.90;;;;;;5074119;28;20029;-62
2021/06/17 03:35:18;;;;;;;8.98;4.40;;;22.90;99.90;;;;;;5074353;28;20087;-62
2021/06/17 03:37:51;;;;;;;7.22;4.47;;;23.00;99.90;;;;;;5073107;28;20044;-62
2021/06/17 03:40:18;;;;;;;11.68;5.13;;;23.10;99.90;;;;;;5074156;28;20381;-62
2021/06/17 03:42:47;;;;;;;9.88;4.82;;;22.90;99.90;;;;;;5073262;28;20025;-62
2021/06/17 03:45:15;;;;;;;7.22;4.50;;;22.70;99.90;;;;;;5072676;28;20047;-62
2021/06/17 03:47:47;;;;;;;10.80;4.95;;;22.70;99.90;;;;;;5074428;28;20024;-63
2021/06/17 03:50:19;;;;;;;8.25;4.78;;;22.30;99.90;;;;;;5072721;28;20036;-63
2021/06/17 03:52:50;;;;;;;8.38;4.97;;;22.40;99.90;;;;;;5074176;28;20048;-62
2021/06/17 03:55:17;;;;;;;8.27;4.38;;;22.20;99.90;;;;;;5074242;28;20020;-62
2021/06/17 03:57:46;;;;;;;7.47;5.07;;;22.40;99.90;;;;;;5063162;28;20040;-62
2021/06/17 04:00:13;;;;;;;8.70;4.32;;;22.50;99.90;;;;;;5053621;28;20029;-61
2021/06/17 04:02:40;;;;;;;9.65;4.00;;;22.50;99.90;;;;;;5052814;28;20043;-60
2021/06/17 04:05:08;;;;;;;7.68;3.80;;;22.50;99.90;;;;;;5067845;28;20028;-61
2021/06/17 04:07:37;;;;;;;6.57;4.35;;;22.30;99.90;;;;;;5074057;28;20093;-59
2021/06/17 04:10:06;;;;;;;8.90;4.40;;;22.10;99.90;;;;;;5072172;28;20035;-60
2021/06/17 04:12:35;;;;;;;7.75;4.47;;;22.30;99.90;;;;;;5073487;28;20499;-59
2021/06/17 04:15:03;;;;;;;11.50;4.25;;;22.30;99.90;;;;;;5072171;28;20427;-60
2021/06/17 04:17:42;;;;;;;6.07;4.00;;;22.20;99.90;;;;;;5073781;28;20039;-61
2021/06/17 04:20:15;;;;;;;7.05;4.10;;;22.20;99.90;;;;;;5072352;28;20064;-61
2021/06/17 04:22:46;;;;;;;9.25;4.70;;;21.90;99.90;;;;;;5072616;28;20064;-61
2021/06/17 04:25:16;;;;;;;11.00;5.05;;;21.70;99.90;;;;;;5072195;28;20039;-62
2021/06/17 04:27:44;;;;;;;8.65;5.07;;;21.70;99.90;;;;;;5073663;28;20028;-61
2021/06/17 04:30:10;;;;;;;7.70;4.47;;;21.70;99.90;;;;;;5071850;28;20056;-61
2021/06/17 04:32:41;;;;;;;8.45;4.55;;;21.80;99.90;;;;;;5072253;28;20064;-62
2021/06/17 04:35:09;;;;;;;7.82;5.03;;;22.10;99.90;;;;;;5088759;28;20025;-62
2021/06/17 04:37:35;;;;;;;7.90;4.63;;;22.20;99.90;;;;;;5088155;28;20068;-62
2021/06/17 04:40:01;;;;;;;9.15;5.03;;;22.20;99.90;;;;;;5071605;28;20028;-60
2021/06/17 04:42:28;;;;;;;19.90;7.85;;;22.30;99.90;;;;;;5088724;28;20038;-60
2021/06/17 04:44:56;;;;;;;11.13;4.55;;;22.40;99.90;;;;;;5088445;28;20092;-61
2021/06/17 04:47:22;;;;;;;12.25;5.00;;;22.50;99.90;;;;;;5073116;28;20037;-59
2021/06/17 04:49:49;;;;;;;12.05;4.82;;;22.70;99.90;;;;;;5073119;28;20029;-59
2021/06/17 04:52:27;;;;;;;8.40;4.95;;;22.90;99.90;;;;;;5072094;28;20082;-59
2021/06/17 04:54:52;;;;;;;12.35;4.63;;;23.00;99.90;;;;;;5071395;28;20078;-60
2021/06/17 04:57:18;;;;;;;10.10;4.85;;;23.10;99.90;;;;;;5072824;28;20028;-64
2021/06/17 04:59:44;;;;;;;9.32;5.43;;;23.20;99.90;;;;;;5072784;28;20032;-61
2021/06/17 05:02:09;;;;;;;8.52;5.40;;;23.10;99.90;;;;;;5072557;28;20328;-60
2021/06/17 05:04:36;;;;;;;8.25;4.43;;;22.90;99.90;;;;;;5043870;28;20425;-60
2021/06/17 05:12:12;;;;;;;13.02;4.60;;;23.20;99.90;;;;;;5072499;28;20492;-60
2021/06/17 05:14:38;;;;;;;9.75;5.38;;;23.30;99.90;;;;;;5072096;28;20072;-60
2021/06/17 05:17:04;;;;;;;9.95;5.05;;;23.40;99.90;;;;;;5054466;28;20465;-60
2021/06/17 05:19:30;;;;;;;8.88;4.60;;;23.50;99.90;;;;;;5072602;28;20122;-62
2021/06/17 05:21:55;;;;;;;6.63;4.03;;;23.60;99.90;;;;;;5070921;28;20033;-63
2021/06/17 05:24:21;;;;;;;8.63;4.05;;;23.60;99.90;;;;;;5070753;28;20197;-63
2021/06/17 05:26:48;;;;;;;8.45;4.00;;;23.70;99.90;;;;;;5071686;28;20119;-64
2021/06/17 05:29:13;;;;;;;7.10;3.50;;;23.80;99.90;;;;;;5071945;28;20029;-63
2021/06/17 05:31:39;;;;;;;8.52;3.03;;;23.90;99.90;;;;;;5071757;28;20056;-64
2021/06/17 05:34:05;;;;;;;4.70;3.08;;;23.90;97.70;;;;;;5069959;28;20039;-64
2021/06/17 05:36:31;;;;;;;5.55;3.80;;;23.80;98.40;;;;;;5071450;28;20064;-63
2021/06/17 05:38:56;;;;;;;9.52;3.97;;;23.90;99.90;;;;;;5071568;28;20031;-65
2021/06/17 05:41:22;;;;;;;7.30;4.05;;;24.00;99.90;;;;;;5072060;28;20094;-65
2021/06/17 05:43:48;;;;;;;5.45;3.40;;;24.00;99.90;;;;;;5071850;28;20029;-63
2021/06/17 05:46:14;;;;;;;9.75;3.92;;;24.00;99.50;;;;;;5072054;28;20044;-63
2021/06/17 05:48:41;;;;;;;7.45;3.95;;;24.10;99.30;;;;;;5072429;28;20029;-64
2021/06/17 05:51:06;;;;;;;8.32;4.07;;;24.20;99.30;;;;;;5070834;28;20484;-64
2021/06/17 05:53:32;;;;;;;12.95;7.30;;;24.30;99.10;;;;;;5087764;28;20028;-64
2021/06/17 05:55:58;;;;;;;9.18;5.10;;;24.20;98.30;;;;;;5071976;28;20055;-63
2021/06/17 05:58:24;;;;;;;14.10;6.15;;;24.20;98.70;;;;;;5071719;28;20020;-65
2021/06/17 06:00:50;;;;;;;9.85;5.15;;;24.20;98.40;;;;;;5071927;28;20431;-65
2021/06/17 06:03:16;;;;;;;10.98;5.75;;;24.30;97.90;;;;;;5070568;28;20029;-63
2021/06/17 06:05:41;;;;;;;11.38;5.68;;;24.50;97.60;;;;;;5075777;28;20389;-63
2021/06/17 06:08:08;;;;;;;12.15;5.78;;;24.60;97.40;;;;;;5075765;28;20028;-64
2021/06/17 06:10:34;;;;;;;15.07;8.40;;;24.60;97.40;;;;;;5075784;28;20044;-63
2021/06/17 06:13:00;;;;;;;17.88;9.13;;;24.60;97.70;;;;;;5075531;28;20554;-64
2021/06/17 06:15:44;;;;;;;11.23;3.40;;;24.70;97.50;;;;;;5076049;28;20110;-63
2021/06/17 06:18:15;;;;;;;7.50;3.00;;;24.80;96.10;;;;;;5076149;28;20469;-64
2021/06/17 06:20:47;;;;;;;8.23;3.08;;;24.90;96.00;;;;;;5074701;28;20028;-64
2021/06/17 06:23:14;;;;;;;12.65;3.25;;;25.00;96.50;;;;;;5075546;28;20366;-63
2021/06/17 06:25:48;;;;;;;9.38;3.05;;;25.20;96.00;;;;;;5075877;28;20039;-64
2021/06/17 06:28:15;;;;;;;8.00;2.97;;;25.30;95.10;;;;;;5074273;28;20043;-63
2021/06/17 06:30:41;;;;;;;6.60;2.92;;;25.40;95.40;;;;;;5075505;28;20119;-64
2021/06/17 06:33:07;;;;;;;6.43;2.72;;;25.50;95.30;;;;;;5075403;28;20029;-64
2021/06/17 06:35:33;;;;;;;5.43;2.70;;;25.60;94.70;;;;;;5074434;28;20034;-64
2021/06/17 06:38:01;;;;;;;4.10;2.47;;;25.60;94.70;;;;;;5075070;28;20028;-64
2021/06/17 06:40:27;;;;;;;4.97;2.47;;;25.70;94.30;;;;;;5075315;28;20111;-65
2021/06/17 06:42:56;;;;;;;6.32;2.25;;;25.80;94.00;;;;;;5091218;28;20115;-64
2021/06/17 06:45:23;;;;;;;7.20;2.35;;;26.00;92.50;;;;;;5074467;28;20504;-63
2021/06/17 06:47:48;;;;;;;4.07;2.20;;;26.10;92.20;;;;;;5074912;28;20075;-64
2021/06/17 06:50:15;;;;;;;4.03;2.08;;;26.30;92.40;;;;;;5057463;28;20044;-64
2021/06/17 06:52:41;;;;;;;6.05;1.95;;;26.50;89.50;;;;;;5074892;28;20025;-64
2021/06/17 06:55:07;;;;;;;3.80;1.63;;;26.70;87.80;;;;;;5075128;28;20024;-65
2021/06/17 06:57:34;;;;;;;5.00;1.90;;;26.80;87.80;;;;;;5074702;28;20044;-64
2021/06/17 07:00:00;;;;;;;6.38;1.85;;;26.90;86.50;;;;;;5053465;28;20037;-64
2021/06/17 07:02:26;;;;;;;4.82;2.10;;;27.00;85.60;;;;;;5053778;28;20036;-64
2021/06/17 07:04:52;;;;;;;5.25;1.80;;;27.00;87.00;;;;;;5068166;28;20082;-63
2021/06/17 07:07:18;;;;;;;8.65;1.77;;;27.00;85.30;;;;;;5074391;28;20268;-64
2021/06/17 07:09:44;;;;;;;5.45;1.90;;;27.10;84.90;;;;;;5073427;28;20032;-63
2021/06/17 07:12:10;;;;;;;3.80;1.80;;;27.10;84.80;;;;;;5074508;28;20024;-63
2021/06/17 07:14:36;;;;;;;7.05;2.05;;;27.20;83.20;;;;;;5074475;28;20370;-64
2021/06/17 07:17:02;;;;;;;2.63;1.80;;;27.20;83.60;;;;;;5073313;28;20177;-65
2021/06/17 07:19:28;;;;;;;5.03;2.38;;;27.10;84.90;;;;;;5073060;28;20389;-64
2021/06/17 07:21:54;;;;;;;4.68;2.28;;;27.20;84.30;;;;;;5074393;28;20033;-64
2021/06/17 07:24:19;;;;;;;3.58;1.92;;;27.20;83.00;;;;;;5074680;28;20045;-64
2021/06/17 07:26:47;;;;;;;6.25;2.22;;;27.30;82.50;;;;;;5073896;28;20039;-64
2021/06/17 07:29:13;;;;;;;4.35;2.15;;;27.20;81.90;;;;;;5072806;28;20388;-64
2021/06/17 07:31:39;;;;;;;6.15;1.88;;;27.20;81.70;;;;;;5074081;28;20036;-64
2021/06/17 07:34:09;;;;;;;7.28;2.25;;;27.40;80.40;;;;;;5073974;28;20040;-64
2021/06/17 07:36:36;;;;;;;3.90;1.98;;;27.60;81.60;;;;;;5073416;28;20033;-64
2021/06/17 07:39:04;;;;;;;8.65;2.13;;;27.50;81.20;;;;;;5074092;28;20328;-64
2021/06/17 07:41:31;;;;;;;3.78;1.90;;;27.40;81.60;;;;;;5074423;28;20033;-64
2021/06/17 07:44:00;;;;;;;6.55;1.92;;;27.40;82.10;;;;;;5074497;28;20047;-64
2021/06/17 07:46:26;;;;;;;6.47;2.00;;;27.30;82.60;;;;;;5072731;28;20440;-63
2021/06/17 07:48:52;;;;;;;3.97;2.03;;;27.50;81.80;;;;;;5074005;28;20068;-63
2021/06/17 07:51:18;;;;;;;4.13;1.98;;;27.40;81.70;;;;;;5074012;28;20033;-62
2021/06/17 07:53:44;;;;;;;8.10;2.20;;;27.40;82.20;;;;;;5072624;28;20080;-63
2021/06/17 07:56:10;;;;;;;9.63;2.88;;;27.40;84.40;;;;;;5073787;28;20025;-63
2021/06/17 07:58:36;;;;;;;4.28;2.30;;;27.50;83.50;;;;;;5083821;28;20028;-63
2021/06/17 08:01:04;;;;;;;3.50;2.40;;;27.60;83.30;;;;;;5073594;28;20039;-64
2021/06/17 08:03:31;;;;;;;7.18;2.40;;;27.60;84.00;;;;;;5073635;28;20082;-63
2021/06/17 08:05:57;;;;;;;3.25;2.00;;;27.80;82.50;;;;;;5073568;28;20063;-63
2021/06/17 08:08:24;;;;;;;7.55;2.42;;;27.80;83.60;;;;;;5073248;28;20083;-63
2021/06/17 08:10:50;;;;;;;8.25;2.40;;;28.00;81.60;;;;;;5073855;28;20078;-64
2021/06/17 08:13:16;;;;;;;5.25;2.33;;;28.00;83.00;;;;;;5071941;28;20032;-64
2021/06/17 08:15:42;;;;;;;4.88;2.05;;;27.90;83.50;;;;;;5073390;28;20500;-64
2021/06/17 08:18:08;;;;;;;4.22;2.25;;;28.20;81.60;;;;;;5073267;28;20041;-64
2021/06/17 08:20:35;;;;;;;6.35;2.00;;;28.40;80.60;;;;;;5073347;28;20401;-64
2021/06/17 08:23:00;;;;;;;35.53;3.63;;;28.50;80.00;;;;;;5073618;28;20047;-64
2021/06/17 08:25:26;;;;;;;6.25;2.20;;;28.50;81.50;;;;;;5073155;28;20033;-64
2021/06/17 08:27:52;;;;;;;7.40;2.47;;;28.40;81.20;;;;;;5073359;28;20028;-64
2021/06/17 08:30:19;;;;;;;6.93;2.30;;;28.50;82.20;;;;;;5072834;28;20048;-65
2021/06/17 08:32:49;;;;;;;5.32;2.65;;;28.60;81.30;;;;;;5073063;28;20033;-64
2021/06/17 08:35:15;;;;;;;4.93;2.35;;;28.60;81.40;;;;;;5071741;28;20481;-64
2021/06/17 08:37:41;;;;;;;4.40;2.65;;;28.50;82.50;;;;;;5071574;28;20127;-64
2021/06/17 08:40:10;;;;;;;8.48;2.63;;;28.70;81.70;;;;;;5071511;28;20504;-64
2021/06/17 08:42:36;;;;;;;5.30;2.53;;;28.90;79.50;;;;;;5072926;28;20436;-64
2021/06/17 08:45:08;;;;;;;4.30;2.50;;;29.00;80.10;;;;;;5072707;28;20032;-64
2021/06/17 08:47:35;;;;;;;4.78;2.38;;;28.90;80.50;;;;;;5072553;28;20433;-64
2021/06/17 08:50:04;;;;;;;7.15;2.17;;;28.70;81.10;;;;;;5072845;28;20025;-64
2021/06/17 08:52:35;;;;;;;3.55;2.33;;;28.90;82.50;;;;;;5071242;28;20028;-64
2021/06/17 08:55:24;;;;;;;7.15;3.05;;;29.10;81.60;;;;;;5072977;28;20082;-65
2021/06/17 08:57:53;;;;;;;5.68;2.40;;;29.10;81.80;;;;;;5069080;28;20485;-65
2021/06/17 09:00:21;;;;;;;4.35;2.75;;;29.00;80.70;;;;;;5052656;28;20083;-65
2021/06/17 09:03:04;;;;;;;4.97;2.78;;;29.20;81.50;;;;;;5052899;28;20033;-65
2021/06/17 09:05:33;;;;;;;4.70;2.72;;;29.40;81.50;;;;;;5051117;28;20024;-65
2021/06/17 09:08:00;;;;;;;6.80;3.83;;;29.50;81.60;;;;;;5052464;28;20075;-65
2021/06/17 09:10:27;;;;;;;10.60;3.60;;;29.50;81.00;;;;;;5052571;28;20051;-65
2021/06/17 09:12:56;;;;;;;4.68;3.30;;;29.60;82.10;;;;;;5051070;28;20437;-65
2021/06/17 09:15:51;;;;;;;6.00;3.50;;;29.50;82.70;;;;;;5051192;28;20025;-65
2021/06/17 09:18:25;;;;;;;8.48;3.60;;;29.50;83.00;;;;;;5052466;28;20040;-63
2021/06/17 09:21:03;;;;;;;4.82;3.45;;;29.50;82.60;;;;;;5052595;28;20032;-64
2021/06/17 09:23:33;;;;;;;5.95;3.63;;;29.40;83.20;;;;;;5052108;28;20037;-62
2021/06/17 09:26:01;;;;;;;4.65;3.22;;;29.50;83.80;;;;;;5052616;28;20029;-64
2021/06/17 09:28:44;;;;;;;6.30;3.92;;;29.60;83.00;;;;;;5058343;28;20037;-64
2021/06/17 09:31:29;;;;;;;6.93;4.00;;;29.40;83.30;;;;;;5070789;28;20041;-64
2021/06/17 09:33:58;;;;;;;7.15;3.78;;;29.70;83.90;;;;;;5071625;28;20418;-64
2021/06/17 09:36:29;;;;;;;10.25;4.00;;;29.90;83.10;;;;;;5059591;28;20120;-64
2021/06/17 09:39:03;;;;;;;6.38;4.32;;;30.00;82.50;;;;;;5055271;28;20045;-65
2021/06/17 09:41:35;;;;;;;8.18;3.63;;;30.00;83.10;;;;;;5066588;28;20029;-65
2021/06/17 09:44:04;;;;;;;7.03;4.05;;;30.00;82.80;;;;;;5052181;28;20029;-64
2021/06/17 09:46:30;;;;;;;11.00;4.45;;;30.10;83.30;;;;;;5052084;28;20465;-64
2021/06/17 09:49:05;;;;;;;5.40;3.78;;;30.20;83.30;;;;;;5052115;28;20044;-64
2021/06/17 09:51:38;;;;;;;5.90;4.40;;;30.40;83.70;;;;;;5067355;28;20039;-65
2021/06/17 09:54:29;;;;;;;6.10;4.60;;;30.50;83.30;;;;;;5051933;28;20489;-65
2021/06/17 09:57:02;;;;;;;7.07;3.95;;;30.50;83.60;;;;;;5066688;28;20037;-64
2021/06/17 09:59:46;;;;;;;6.30;4.03;;;30.80;83.40;;;;;;5066108;28;20024;-64
2021/06/17 10:02:22;;;;;;;9.20;4.50;;;31.10;83.40;;;;;;5072321;28;20063;-64
2021/06/17 10:04:49;;;;;;;6.63;4.10;;;31.10;81.80;;;;;;5070414;28;20040;-65
2021/06/17 10:07:19;;;;;;;4.85;3.85;;;31.20;81.50;;;;;;5070469;28;20497;-64
2021/06/17 10:09:46;;;;;;;4.72;3.50;;;31.30;80.90;;;;;;5070354;28;20028;-64
2021/06/17 10:12:13;;;;;;;6.38;4.35;;;31.30;81.40;;;;;;5071647;28;20036;-64
2021/06/17 10:14:38;;;;;;;8.73;4.45;;;31.10;82.80;;;;;;5071653;28;20028;-64
2021/06/17 10:17:07;;;;;;;4.93;4.03;;;31.20;81.90;;;;;;5054179;28;20036;-65
2021/06/17 10:19:33;;;;;;;10.23;4.30;;;31.30;81.60;;;;;;5071812;28;20063;-64
2021/06/17 10:21:59;;;;;;;5.90;5.00;;;31.40;82.00;;;;;;5071569;28;20426;-65
2021/06/17 10:24:29;;;;;;;6.85;4.55;;;31.50;80.00;;;;;;5070555;28;20040;-64
2021/06/17 10:27:08;;;;;;;7.97;4.90;;;31.70;81.30;;;;;;5071737;28;20539;-63
2021/06/17 10:29:39;;;;;;;10.02;4.43;;;31.80;79.80;;;;;;5071454;28;20044;-65
2021/06/17 10:32:11;;;;;;;11.32;5.28;;;31.80;80.90;;;;;;5070598;28;20040;-64
2021/06/17 10:34:42;;;;;;;6.30;4.47;;;31.90;80.50;;;;;;5071601;28;20031;-65
2021/06/17 10:37:29;;;;;;;9.55;4.40;;;32.10;81.70;;;;;;5053982;28;20055;-63
2021/06/17 10:40:16;;;;;;;8.32;4.65;;;32.20;79.00;;;;;;5071540;28;20024;-64
2021/06/17 10:42:52;;;;;;;10.32;4.38;;;32.10;78.70;;;;;;5070871;28;20032;-64
2021/06/17 10:45:43;;;;;;;9.60;4.65;;;32.20;80.20;;;;;;5070088;28;20029;-63
2021/06/17 10:48:12;;;;;;;9.10;4.90;;;32.20;79.40;;;;;;5071427;28;20044;-63
2021/06/17 10:51:09;;;;;;;7.30;4.60;;;32.40;80.30;;;;;;5071739;28;20064;-65
2021/06/17 10:53:35;;;;;;;5.63;4.20;;;32.70;79.00;;;;;;5070389;28;20040;-65
2021/06/17 10:56:26;;;;;;;10.48;4.68;;;32.80;79.30;;;;;;5074720;28;20036;-65
2021/06/17 10:58:57;;;;;;;7.60;4.55;;;32.80;79.90;;;;;;5075121;28;20602;-67
2021/06/17 11:01:31;;;;;;;7.07;4.70;;;32.80;77.70;;;;;;5074656;28;20119;-67
2021/06/17 11:04:44;;;;;;;7.70;4.60;;;32.80;78.50;;;;;;5073649;28;20082;-66
2021/06/17 11:07:11;;;;;;;7.57;4.25;;;33.00;77.10;;;;;;5073785;28;20051;-66
2021/06/17 11:09:46;;;;;;;9.02;4.53;;;33.30;76.40;;;;;;5074707;28;20032;-67
2021/06/17 11:12:18;;;;;;;7.15;4.60;;;33.40;76.70;;;;;;5075053;28;20044;-67
2021/06/17 11:14:50;;;;;;;5.82;4.03;;;33.50;75.20;;;;;;5073388;28;20033;-67
2021/06/17 11:17:31;;;;;;;5.55;4.70;;;33.30;76.20;;;;;;5073420;28;20036;-66
2021/06/17 11:20:06;;;;;;;7.05;4.82;;;33.40;72.40;;;;;;5074530;28;20056;-67
2021/06/17 11:22:49;;;;;;;6.40;4.78;;;33.40;74.00;;;;;;5073466;28;20032;-67
2021/06/17 11:25:18;;;;;;;10.45;5.38;;;33.60;73.60;;;;;;5074398;28;20032;-67
2021/06/17 11:28:01;;;;;;;6.45;4.85;;;33.60;74.00;;;;;;5074381;28;20430;-66
2021/06/17 11:30:40;;;;;;;30.23;17.95;;;33.70;75.60;;;;;;5089454;28;20048;-67
2021/06/17 11:33:18;;;;;;;8.32;5.13;;;33.90;74.20;;;;;;5089874;28;20121;-67
2021/06/17 11:35:46;;;;;;;6.20;4.90;;;34.10;75.00;;;;;;5074585;28;20039;-66
2021/06/17 11:38:13;;;;;;;8.15;4.60;;;34.10;73.80;;;;;;5074496;28;20075;-67
2021/06/17 11:40:39;;;;;;;7.50;4.43;;;34.30;74.90;;;;;;5074294;28;20482;-67
2021/06/17 11:43:05;;;;;;;7.75;4.50;;;34.10;71.80;;;;;;5072913;28;20039;-66
2021/06/17 11:45:36;;;;;;;7.47;4.82;;;33.90;72.80;;;;;;5073740;28;20120;-66
2021/06/17 11:48:07;;;;;;;7.50;4.80;;;33.90;73.50;;;;;;5072912;28;20032;-66
2021/06/17 11:50:46;;;;;;;7.03;4.28;;;34.00;74.60;;;;;;5073820;28;20068;-67
2021/06/17 11:53:24;;;;;;;13.73;5.78;;;34.30;72.30;;;;;;5072934;28;20025;-66
2021/06/17 11:55:54;;;;;;;6.68;4.85;;;34.40;72.50;;;;;;5072470;28;20447;-66
2021/06/17 11:58:26;;;;;;;5.93;5.10;;;34.50;70.20;;;;;;5072334;28;20546;-66
2021/06/17 12:00:52;;;;;;;10.55;6.00;;;34.20;71.50;;;;;;5072358;28;20031;-67
2021/06/17 12:03:25;;;;;;;5.20;4.00;;;34.20;71.20;;;;;;5072042;28;20102;-66
2021/06/17 12:06:13;;;;;;;5.53;4.28;;;34.30;70.70;;;;;;5072577;28;20032;-65
2021/06/17 12:08:39;;;;;;;6.38;4.40;;;34.20;68.50;;;;;;5072428;28;20098;-66
2021/06/17 12:11:24;;;;;;;7.78;4.57;;;34.50;69.70;;;;;;5073511;28;20393;-66
2021/06/17 12:13:51;;;;;;;5.25;3.97;;;34.50;67.90;;;;;;5072656;28;20028;-66
2021/06/17 12:16:19;;;;;;;6.80;3.80;;;34.70;68.60;;;;;;5055609;28;20504;-66
2021/06/17 12:18:45;;;;;;;7.03;4.40;;;34.60;68.10;;;;;;5073651;28;20036;-66
2021/06/17 12:21:10;;;;;;;8.40;4.20;;;34.70;68.70;;;;;;5073727;28;20130;-66
2021/06/17 12:23:36;;;;;;;5.03;4.10;;;34.60;68.70;;;;;;5073571;28;20032;-65
2021/06/17 12:26:07;;;;;;;8.48;4.75;;;34.70;68.30;;;;;;5073348;28;20101;-65
2021/06/17 12:28:58;;;;;;;9.57;4.90;;;34.60;69.80;;;;;;5073207;28;20064;-66
2021/06/17 12:31:36;;;;;;;10.63;4.28;;;34.50;69.90;;;;;;5071538;28;20067;-66
2021/06/17 12:34:10;;;;;;;5.45;4.20;;;34.40;68.80;;;;;;5071916;28;20429;-67
2021/06/17 12:36:37;;;;;;;4.28;3.83;;;34.20;71.10;;;;;;5071642;28;20032;-66
2021/06/17 12:39:18;;;;;;;11.27;5.18;;;34.10;69.80;;;;;;5072126;28;20056;-65
2021/06/17 12:41:49;;;;;;;7.35;4.50;;;34.20;71.80;;;;;;5056166;28;20595;-66
2021/06/17 12:44:42;;;;;;;9.77;4.00;;;34.20;71.20;;;;;;5085288;28;20032;-65
2021/06/17 12:47:27;;;;;;;7.97;4.45;;;34.20;72.50;;;;;;5071843;28;20044;-66
2021/06/17 12:52:39;;;;;;;6.88;4.78;;;34.60;68.60;;;;;;5071391;28;20028;-67
2021/06/17 12:55:07;;;;;;;7.32;3.97;;;34.60;70.20;;;;;;5071768;28;20108;-66
2021/06/17 12:57:33;;;;;;;8.48;3.95;;;34.50;69.80;;;;;;5072513;28;20140;-66
2021/06/17 13:00:01;;;;;;;6.82;4.18;;;34.60;69.20;;;;;;5052649;28;20103;-66
2021/06/17 13:02:27;;;;;;;5.97;4.20;;;34.70;68.50;;;;;;5051325;28;20037;-66
2021/06/17 13:05:06;;;;;;;6.75;3.60;;;34.90;69.30;;;;;;5052763;28;20378;-66
2021/06/17 13:07:35;;;;;;;6.57;4.10;;;35.00;64.90;;;;;;5052376;28;20052;-66
2021/06/17 13:10:23;;;;;;;19.38;4.70;;;35.30;67.90;;;;;;5051174;28;20401;-66